sensor_id;sensor_type;location;lat;lon;timestamp;pressure;altitude;pressure_sealevel;temperature;humidity
45255;BME280;30989;52.078;21.014;2023-02-27T00:00:50;163677.66;;;-0.27;97.41
45255;BME280;30989;52.078;21.014;2023-02-27T00:03:16;163677.66;;;-0.27;97.70
45255;BME280;30989;52.078;21.014;2023-02-27T00:05:41;163684.31;;;-0.25;97.51
45255;BME280;30989;52.078;21.014;2023-02-27T00:08:07;163677.66;;;-0.27;97.80
45255;BME280;30989;52.078;21.014;2023-02-27T00:10:33;163686.97;;;-0.24;97.95
45255;BME280;30989;52.078;21.014;2023-02-27T00:12:58;163676.31;;;-0.28;97.73
45255;BME280;30989;52.078;21.014;2023-02-27T00:15:24;163667.03;;;-0.32;97.79
45255;BME280;30989;52.078;21.014;2023-02-27T00:17:50;163664.38;;;-0.33;97.42
45255;BME280;30989;52.078;21.014;2023-02-27T00:20:16;163675.00;;;-0.28;97.66
45255;BME280;30989;52.078;21.014;2023-02-27T00:22:43;163673.66;;;-0.29;97.72
45255;BME280;30989;52.078;21.014;2023-02-27T00:25:09;163676.31;;;-0.28;97.60
45255;BME280;30989;52.078;21.014;2023-02-27T00:27:35;163667.03;;;-0.32;97.76
45255;BME280;30989;52.078;21.014;2023-02-27T00:30:03;163667.03;;;-0.32;98.14
45255;BME280;30989;52.078;21.014;2023-02-27T00:32:29;163675.00;;;-0.28;98.35
45255;BME280;30989;52.078;21.014;2023-02-27T00:34:54;163669.69;;;-0.30;98.52
45255;BME280;30989;52.078;21.014;2023-02-27T00:37:19;163669.69;;;-0.30;98.54
45255;BME280;30989;52.078;21.014;2023-02-27T00:39:45;163668.34;;;-0.31;98.83
45255;BME280;30989;52.078;21.014;2023-02-27T00:42:11;163656.38;;;-0.36;99.38
45255;BME280;30989;52.078;21.014;2023-02-27T00:44:37;163653.72;;;-0.37;100.00
45255;BME280;30989;52.078;21.014;2023-02-27T00:47:05;163651.06;;;-0.38;100.00
45255;BME280;30989;52.078;21.014;2023-02-27T00:49:31;163641.75;;;-0.41;100.00
45255;BME280;30989;52.078;21.014;2023-02-27T00:51:56;163633.78;;;-0.44;100.00
45255;BME280;30989;52.078;21.014;2023-02-27T00:54:22;163629.81;;;-0.46;100.00
45255;BME280;30989;52.078;21.014;2023-02-27T00:56:48;163619.16;;;-0.50;100.00
45255;BME280;30989;52.078;21.014;2023-02-27T00:59:13;163623.16;;;-0.48;100.00
45255;BME280;30989;52.078;21.014;2023-02-27T01:01:38;163611.19;;;-0.53;100.00
45255;BME280;30989;52.078;21.014;2023-02-27T01:04:04;163608.53;;;-0.54;100.00
45255;BME280;30989;52.078;21.014;2023-02-27T01:06:30;163579.28;;;-0.65;100.00
45255;BME280;30989;52.078;21.014;2023-02-27T01:08:55;163588.59;;;-0.61;100.00
45255;BME280;30989;52.078;21.014;2023-02-27T01:11:23;163595.25;;;-0.59;100.00
45255;BME280;30989;52.078;21.014;2023-02-27T01:13:48;163589.94;;;-0.61;100.00
45255;BME280;30989;52.078;21.014;2023-02-27T01:16:15;163581.97;;;-0.64;100.00
45255;BME280;30989;52.078;21.014;2023-02-27T01:18:40;163588.59;;;-0.61;100.00
45255;BME280;30989;52.078;21.014;2023-02-27T01:21:07;163575.31;;;-0.67;100.00
45255;BME280;30989;52.078;21.014;2023-02-27T01:23:32;163579.28;;;-0.65;100.00
45255;BME280;30989;52.078;21.014;2023-02-27T01:25:58;163587.28;;;-0.62;100.00
45255;BME280;30989;52.078;21.014;2023-02-27T01:28:25;163580.63;;;-0.65;100.00
45255;BME280;30989;52.078;21.014;2023-02-27T01:30:51;163564.69;;;-0.71;100.00
45255;BME280;30989;52.078;21.014;2023-02-27T01:33:16;163581.97;;;-0.64;100.00
45255;BME280;30989;52.078;21.014;2023-02-27T01:35:42;163580.63;;;-0.65;100.00
45255;BME280;30989;52.078;21.014;2023-02-27T01:38:08;163581.97;;;-0.64;100.00
45255;BME280;30989;52.078;21.014;2023-02-27T01:40:36;163579.28;;;-0.65;100.00
45255;BME280;30989;52.078;21.014;2023-02-27T01:43:03;163567.34;;;-0.70;100.00
45255;BME280;30989;52.078;21.014;2023-02-27T01:45:31;163568.66;;;-0.69;100.00
45255;BME280;30989;52.078;21.014;2023-02-27T01:48:14;163566.00;;;-0.70;100.00
45255;BME280;30989;52.078;21.014;2023-02-27T01:51:08;163566.00;;;-0.70;100.00
45255;BME280;30989;52.078;21.014;2023-02-27T01:53:37;163571.31;;;-0.68;100.00
45255;BME280;30989;52.078;21.014;2023-02-27T01:56:22;163570.00;;;-0.69;100.00
45255;BME280;30989;52.078;21.014;2023-02-27T01:58:51;163563.34;;;-0.71;100.00
45255;BME280;30989;52.078;21.014;2023-02-27T02:01:18;163544.75;;;-0.78;100.00
45255;BME280;30989;52.078;21.014;2023-02-27T02:04:05;163560.69;;;-0.72;100.00
45255;BME280;30989;52.078;21.014;2023-02-27T02:06:35;163562.03;;;-0.72;100.00
45255;BME280;30989;52.078;21.014;2023-02-27T02:09:01;163558.03;;;-0.73;100.00
45255;BME280;30989;52.078;21.014;2023-02-27T02:11:28;163544.75;;;-0.78;100.00
45255;BME280;30989;52.078;21.014;2023-02-27T02:13:56;163555.38;;;-0.74;100.00
45255;BME280;30989;52.078;21.014;2023-02-27T02:19:46;163547.41;;;-0.77;100.00
45255;BME280;30989;52.078;21.014;2023-02-27T02:28:05;163550.06;;;-0.76;100.00
45255;BME280;30989;52.078;21.014;2023-02-27T02:31:08;163550.06;;;-0.76;100.00
45255;BME280;30989;52.078;21.014;2023-02-27T02:36:45;163540.75;;;-0.80;100.00
45255;BME280;30989;52.078;21.014;2023-02-27T02:45:13;163534.13;;;-0.82;100.00
45255;BME280;30989;52.078;21.014;2023-02-27T02:48:02;163523.47;;;-0.86;100.00
45255;BME280;30989;52.078;21.014;2023-02-27T02:50:53;163528.78;;;-0.84;100.00
45255;BME280;30989;52.078;21.014;2023-02-27T02:53:23;163523.47;;;-0.86;100.00
45255;BME280;30989;52.078;21.014;2023-02-27T02:55:58;163514.19;;;-0.90;100.00
45255;BME280;30989;52.078;21.014;2023-02-27T02:58:46;163504.88;;;-0.93;100.00
45255;BME280;30989;52.078;21.014;2023-02-27T03:01:23;163512.84;;;-0.90;100.00
45255;BME280;30989;52.078;21.014;2023-02-27T03:04:23;163512.84;;;-0.90;100.00
45255;BME280;30989;52.078;21.014;2023-02-27T03:06:58;163519.50;;;-0.88;100.00
45255;BME280;30989;52.078;21.014;2023-02-27T03:09:41;163515.50;;;-0.89;100.00
45255;BME280;30989;52.078;21.014;2023-02-27T03:12:10;163520.81;;;-0.87;100.00
45255;BME280;30989;52.078;21.014;2023-02-27T03:14:41;163518.16;;;-0.88;100.00
45255;BME280;30989;52.078;21.014;2023-02-27T03:17:17;163512.84;;;-0.90;100.00
45255;BME280;30989;52.078;21.014;2023-02-27T03:19:45;163515.50;;;-0.89;100.00
45255;BME280;30989;52.078;21.014;2023-02-27T03:22:17;163510.19;;;-0.91;100.00
45255;BME280;30989;52.078;21.014;2023-02-27T03:24:47;163499.56;;;-0.95;100.00
45255;BME280;30989;52.078;21.014;2023-02-27T03:27:15;163511.53;;;-0.91;100.00
45255;BME280;30989;52.078;21.014;2023-02-27T03:29:59;163510.19;;;-0.91;100.00
45255;BME280;30989;52.078;21.014;2023-02-27T03:32:34;163515.50;;;-0.89;100.00
45255;BME280;30989;52.078;21.014;2023-02-27T03:35:03;163508.88;;;-0.92;100.00
45255;BME280;30989;52.078;21.014;2023-02-27T03:43:07;163528.78;;;-0.84;100.00
45255;BME280;30989;52.078;21.014;2023-02-27T03:46:06;163532.78;;;-0.83;100.00
45255;BME280;30989;52.078;21.014;2023-02-27T03:48:35;163527.47;;;-0.85;100.00
45255;BME280;30989;52.078;21.014;2023-02-27T03:51:00;163494.25;;;-0.98;100.00
45255;BME280;30989;52.078;21.014;2023-02-27T03:53:40;163515.50;;;-0.89;100.00
45255;BME280;30989;52.078;21.014;2023-02-27T03:56:11;163526.16;;;-0.85;100.00
45255;BME280;30989;52.078;21.014;2023-02-27T03:58:37;163522.16;;;-0.87;100.00
45255;BME280;30989;52.078;21.014;2023-02-27T04:01:03;163518.16;;;-0.88;100.00
45255;BME280;30989;52.078;21.014;2023-02-27T04:03:33;163512.84;;;-0.90;100.00
45255;BME280;30989;52.078;21.014;2023-02-27T04:06:00;163502.22;;;-0.94;100.00
45255;BME280;30989;52.078;21.014;2023-02-27T04:23:20;163473.00;;;-1.06;100.00
45255;BME280;30989;52.078;21.014;2023-02-27T04:25:35;163471.66;;;-1.06;100.00
45255;BME280;30989;52.078;21.014;2023-02-27T04:28:13;163466.34;;;-1.08;100.00
45255;BME280;30989;52.078;21.014;2023-02-27T04:31:01;163462.38;;;-1.10;100.00
45255;BME280;30989;52.078;21.014;2023-02-27T04:33:38;163454.38;;;-1.13;100.00
45255;BME280;30989;52.078;21.014;2023-02-27T04:36:28;163459.72;;;-1.11;100.00
45255;BME280;30989;52.078;21.014;2023-02-27T04:42:22;163458.38;;;-1.11;100.00
45255;BME280;30989;52.078;21.014;2023-02-27T04:44:54;163447.75;;;-1.15;100.00
45255;BME280;30989;52.078;21.014;2023-02-27T04:47:22;163466.34;;;-1.08;100.00
45255;BME280;30989;52.078;21.014;2023-02-27T04:49:54;163467.69;;;-1.08;100.00
45255;BME280;30989;52.078;21.014;2023-02-27T04:55:12;163470.34;;;-1.07;100.00
45255;BME280;30989;52.078;21.014;2023-02-27T04:57:48;163475.66;;;-1.05;100.00
45255;BME280;30989;52.078;21.014;2023-02-27T05:00:19;163480.97;;;-1.03;100.00
45255;BME280;30989;52.078;21.014;2023-02-27T05:03:20;163480.97;;;-1.03;100.00
45255;BME280;30989;52.078;21.014;2023-02-27T05:05:47;163479.63;;;-1.03;100.00
45255;BME280;30989;52.078;21.014;2023-02-27T05:08:38;163478.31;;;-1.04;100.00
45255;BME280;30989;52.078;21.014;2023-02-27T05:11:10;163479.63;;;-1.03;100.00
45255;BME280;30989;52.078;21.014;2023-02-27T05:13:45;163475.66;;;-1.05;100.00
45255;BME280;30989;52.078;21.014;2023-02-27T05:16:48;163480.97;;;-1.03;100.00
45255;BME280;30989;52.078;21.014;2023-02-27T05:19:05;163482.28;;;-1.02;100.00
45255;BME280;30989;52.078;21.014;2023-02-27T05:21:45;163480.97;;;-1.03;100.00
45255;BME280;30989;52.078;21.014;2023-02-27T05:24:36;163483.63;;;-1.02;100.00
45255;BME280;30989;52.078;21.014;2023-02-27T05:29:49;163486.28;;;-1.01;100.00
45255;BME280;30989;52.078;21.014;2023-02-27T05:35:47;163491.59;;;-0.99;100.00
45255;BME280;30989;52.078;21.014;2023-02-27T05:38:19;163480.97;;;-1.03;100.00
45255;BME280;30989;52.078;21.014;2023-02-27T05:40:49;163494.25;;;-0.98;100.00
45255;BME280;30989;52.078;21.014;2023-02-27T05:43:27;163496.91;;;-0.97;100.00
45255;BME280;30989;52.078;21.014;2023-02-27T05:45:58;163499.56;;;-0.95;100.00
45255;BME280;30989;52.078;21.014;2023-02-27T05:48:28;163499.56;;;-0.95;100.00
45255;BME280;30989;52.078;21.014;2023-02-27T05:50:56;163511.53;;;-0.91;100.00
45255;BME280;30989;52.078;21.014;2023-02-27T05:53:27;163512.84;;;-0.90;100.00
45255;BME280;30989;52.078;21.014;2023-02-27T05:55:57;163511.53;;;-0.91;100.00
45255;BME280;30989;52.078;21.014;2023-02-27T05:58:27;163523.47;;;-0.86;100.00
45255;BME280;30989;52.078;21.014;2023-02-27T06:00:59;163527.47;;;-0.85;100.00
45255;BME280;30989;52.078;21.014;2023-02-27T06:03:27;163520.81;;;-0.87;100.00
45255;BME280;30989;52.078;21.014;2023-02-27T06:05:53;163532.78;;;-0.83;100.00
45255;BME280;30989;52.078;21.014;2023-02-27T06:08:20;163535.44;;;-0.82;100.00
45255;BME280;30989;52.078;21.014;2023-02-27T06:10:47;163519.50;;;-0.88;100.00
45255;BME280;30989;52.078;21.014;2023-02-27T06:13:14;163520.81;;;-0.87;100.00
45255;BME280;30989;52.078;21.014;2023-02-27T06:15:42;163523.47;;;-0.86;100.00
45255;BME280;30989;52.078;21.014;2023-02-27T06:18:09;163534.13;;;-0.82;100.00
45255;BME280;30989;52.078;21.014;2023-02-27T06:20:34;163539.44;;;-0.80;100.00
45255;BME280;30989;52.078;21.014;2023-02-27T06:22:59;163543.41;;;-0.79;100.00
45255;BME280;30989;52.078;21.014;2023-02-27T06:25:25;163542.09;;;-0.79;100.00
45255;BME280;30989;52.078;21.014;2023-02-27T06:27:51;163547.41;;;-0.77;100.00
45255;BME280;30989;52.078;21.014;2023-02-27T06:30:16;163552.72;;;-0.75;100.00
45255;BME280;30989;52.078;21.014;2023-02-27T06:32:42;163542.09;;;-0.79;100.00
45255;BME280;30989;52.078;21.014;2023-02-27T06:35:08;163538.09;;;-0.81;100.00
45255;BME280;30989;52.078;21.014;2023-02-27T06:37:33;163547.41;;;-0.77;100.00
45255;BME280;30989;52.078;21.014;2023-02-27T06:39:59;163542.09;;;-0.79;100.00
45255;BME280;30989;52.078;21.014;2023-02-27T06:42:25;163546.06;;;-0.78;100.00
45255;BME280;30989;52.078;21.014;2023-02-27T06:44:51;163548.72;;;-0.77;100.00
45255;BME280;30989;52.078;21.014;2023-02-27T06:47:16;163552.72;;;-0.75;100.00
45255;BME280;30989;52.078;21.014;2023-02-27T06:49:42;163547.41;;;-0.77;100.00
45255;BME280;30989;52.078;21.014;2023-02-27T06:52:07;163546.06;;;-0.78;100.00
45255;BME280;30989;52.078;21.014;2023-02-27T06:54:33;163552.72;;;-0.75;100.00
45255;BME280;30989;52.078;21.014;2023-02-27T06:56:58;163563.34;;;-0.71;100.00
45255;BME280;30989;52.078;21.014;2023-02-27T06:59:24;163566.00;;;-0.70;100.00
45255;BME280;30989;52.078;21.014;2023-02-27T07:01:49;163524.81;;;-0.86;100.00
45255;BME280;30989;52.078;21.014;2023-02-27T07:04:16;163560.69;;;-0.72;100.00
45255;BME280;30989;52.078;21.014;2023-02-27T07:06:41;163579.28;;;-0.65;100.00
45255;BME280;30989;52.078;21.014;2023-02-27T07:09:07;163585.94;;;-0.62;97.85
45255;BME280;30989;52.078;21.014;2023-02-27T07:11:32;163585.94;;;-0.62;97.38
45255;BME280;30989;52.078;21.014;2023-02-27T07:13:58;163601.88;;;-0.56;95.54
45255;BME280;30989;52.078;21.014;2023-02-27T07:16:23;163603.22;;;-0.56;95.64
45255;BME280;30989;52.078;21.014;2023-02-27T07:18:49;163621.81;;;-0.49;94.39
45255;BME280;30989;52.078;21.014;2023-02-27T07:21:14;163640.44;;;-0.42;93.96
45255;BME280;30989;52.078;21.014;2023-02-27T07:23:40;163653.72;;;-0.37;92.40
45255;BME280;30989;52.078;21.014;2023-02-27T07:26:06;163659.03;;;-0.35;92.48
45255;BME280;30989;52.078;21.014;2023-02-27T07:28:31;163677.66;;;-0.27;90.57
45255;BME280;30989;52.078;21.014;2023-02-27T07:30:57;163669.69;;;-0.30;87.59
45255;BME280;30989;52.078;21.014;2023-02-27T07:33:23;163680.31;;;-0.26;88.28
45255;BME280;30989;52.078;21.014;2023-02-27T07:35:49;163682.97;;;-0.25;89.34
45255;BME280;30989;52.078;21.014;2023-02-27T07:38:14;163696.25;;;-0.20;89.42
45255;BME280;30989;52.078;21.014;2023-02-27T07:40:40;163700.25;;;-0.19;87.90
45255;BME280;30989;52.078;21.014;2023-02-27T07:43:07;163705.56;;;-0.17;85.17
45255;BME280;30989;52.078;21.014;2023-02-27T07:45:32;163712.22;;;-0.14;85.13
45255;BME280;30989;52.078;21.014;2023-02-27T07:47:58;163704.25;;;-0.17;85.24
45255;BME280;30989;52.078;21.014;2023-02-27T07:50:42;163692.28;;;-0.22;83.48
45255;BME280;30989;52.078;21.014;2023-02-27T07:53:08;163697.59;;;-0.20;83.17
45255;BME280;30989;52.078;21.014;2023-02-27T07:55:35;163696.25;;;-0.20;82.80
45255;BME280;30989;52.078;21.014;2023-02-27T07:58:01;163690.94;;;-0.22;81.09
45255;BME280;30989;52.078;21.014;2023-02-27T08:00:26;163677.66;;;-0.27;81.51
45255;BME280;30989;52.078;21.014;2023-02-27T08:02:52;163686.97;;;-0.24;79.50
45255;BME280;30989;52.078;21.014;2023-02-27T08:05:18;163688.28;;;-0.23;78.75
45255;BME280;30989;52.078;21.014;2023-02-27T08:07:43;163671.00;;;-0.30;76.07
45255;BME280;30989;52.078;21.014;2023-02-27T08:10:11;163669.69;;;-0.30;76.61
45255;BME280;30989;52.078;21.014;2023-02-27T08:12:36;163664.38;;;-0.33;76.29
45255;BME280;30989;52.078;21.014;2023-02-27T08:15:02;163672.34;;;-0.29;74.68
45255;BME280;30989;52.078;21.014;2023-02-27T08:17:28;163665.69;;;-0.32;74.76
45255;BME280;30989;52.078;21.014;2023-02-27T08:19:54;163685.63;;;-0.24;76.02
45255;BME280;30989;52.078;21.014;2023-02-27T08:22:19;163698.94;;;-0.19;75.94
45255;BME280;30989;52.078;21.014;2023-02-27T08:24:45;163713.56;;;-0.14;76.88
45255;BME280;30989;52.078;21.014;2023-02-27T08:27:10;163738.81;;;-0.04;75.16
45255;BME280;30989;52.078;21.014;2023-02-27T08:29:36;163760.13;;;0.04;75.83
45255;BME280;30989;52.078;21.014;2023-02-27T08:32:02;163776.09;;;0.10;74.39
45255;BME280;30989;52.078;21.014;2023-02-27T08:34:29;163780.09;;;0.12;74.52
45255;BME280;30989;52.078;21.014;2023-02-27T08:36:55;163782.75;;;0.13;73.81
45255;BME280;30989;52.078;21.014;2023-02-27T08:39:20;163808.00;;;0.22;75.50
45255;BME280;30989;52.078;21.014;2023-02-27T08:41:49;163810.66;;;0.23;74.76
45255;BME280;30989;52.078;21.014;2023-02-27T08:44:18;163830.63;;;0.31;71.41
45255;BME280;30989;52.078;21.014;2023-02-27T08:46:44;163823.97;;;0.28;71.51
45255;BME280;30989;52.078;21.014;2023-02-27T08:49:09;163794.72;;;0.17;71.70
45255;BME280;30989;52.078;21.014;2023-02-27T08:51:35;163823.97;;;0.28;72.22
45255;BME280;30989;52.078;21.014;2023-02-27T08:54:00;163829.28;;;0.30;67.70
45255;BME280;30989;52.078;21.014;2023-02-27T08:56:27;163834.59;;;0.32;70.04
45255;BME280;30989;52.078;21.014;2023-02-27T08:58:53;163829.28;;;0.30;69.59
45255;BME280;30989;52.078;21.014;2023-02-27T09:01:19;163842.59;;;0.36;71.36
45255;BME280;30989;52.078;21.014;2023-02-27T09:03:44;163869.19;;;0.46;69.29
45255;BME280;30989;52.078;21.014;2023-02-27T09:06:10;163887.81;;;0.53;67.79
45255;BME280;30989;52.078;21.014;2023-02-27T09:08:36;163901.09;;;0.58;68.83
45255;BME280;30989;52.078;21.014;2023-02-27T09:11:02;163911.75;;;0.62;68.35
45255;BME280;30989;52.078;21.014;2023-02-27T09:13:27;163909.09;;;0.61;65.35
45255;BME280;30989;52.078;21.014;2023-02-27T09:15:53;163951.66;;;0.77;68.78
45255;BME280;30989;52.078;21.014;2023-02-27T09:18:19;163959.66;;;0.80;67.54
45255;BME280;30989;52.078;21.014;2023-02-27T09:20:45;164004.88;;;0.98;67.35
45255;BME280;30989;52.078;21.014;2023-02-27T09:23:12;164011.53;;;1.00;67.24
45255;BME280;30989;52.078;21.014;2023-02-27T09:25:38;164015.53;;;1.02;66.76
45255;BME280;30989;52.078;21.014;2023-02-27T09:28:03;164026.16;;;1.06;64.65
45255;BME280;30989;52.078;21.014;2023-02-27T09:30:29;164022.19;;;1.04;65.91
45255;BME280;30989;52.078;21.014;2023-02-27T09:32:54;164004.88;;;0.98;64.56
45255;BME280;30989;52.078;21.014;2023-02-27T09:35:23;163967.63;;;0.83;64.76
45255;BME280;30989;52.078;21.014;2023-02-27T09:37:49;163962.31;;;0.81;64.79
45255;BME280;30989;52.078;21.014;2023-02-27T09:40:27;163995.56;;;0.94;65.23
45255;BME280;30989;52.078;21.014;2023-02-27T09:42:56;164050.13;;;1.15;65.87
45255;BME280;30989;52.078;21.014;2023-02-27T09:45:27;164114.00;;;1.39;66.86
45255;BME280;30989;52.078;21.014;2023-02-27T09:48:33;164171.25;;;1.61;64.94
45255;BME280;30989;52.078;21.014;2023-02-27T09:51:01;164201.84;;;1.73;66.37
45255;BME280;30989;52.078;21.014;2023-02-27T09:53:37;164265.78;;;1.97;64.71
45255;BME280;30989;52.078;21.014;2023-02-27T09:56:08;164287.06;;;2.05;64.70
45255;BME280;30989;52.078;21.014;2023-02-27T09:58:46;164267.09;;;1.98;62.01
45255;BME280;30989;52.078;21.014;2023-02-27T10:01:21;164252.47;;;1.92;64.70
45255;BME280;30989;52.078;21.014;2023-02-27T10:06:50;164308.38;;;2.13;65.86
45255;BME280;30989;52.078;21.014;2023-02-27T10:12:16;164336.34;;;2.24;63.03
45255;BME280;30989;52.078;21.014;2023-02-27T10:14:51;164319.03;;;2.17;63.61
45255;BME280;30989;52.078;21.014;2023-02-27T10:19:49;164265.78;;;1.97;64.13
45255;BME280;30989;52.078;21.014;2023-02-27T10:22:20;164261.78;;;1.96;63.68
45255;BME280;30989;52.078;21.014;2023-02-27T10:24:56;164227.16;;;1.82;61.93
45255;BME280;30989;52.078;21.014;2023-02-27T10:27:24;164203.19;;;1.73;64.21
45255;BME280;30989;52.078;21.014;2023-02-27T10:29:50;164273.75;;;2.00;64.84
45255;BME280;30989;52.078;21.014;2023-02-27T10:32:22;164508.19;;;2.89;65.60
45255;BME280;30989;52.078;21.014;2023-02-27T10:34:54;164677.44;;;3.54;64.03
45255;BME280;30989;52.078;21.014;2023-02-27T10:37:24;164857.44;;;4.22;61.91
45255;BME280;30989;52.078;21.014;2023-02-27T10:39:56;164972.16;;;4.66;60.00
45255;BME280;30989;52.078;21.014;2023-02-27T10:42:26;164973.50;;;4.67;57.81
45255;BME280;30989;52.078;21.014;2023-02-27T10:44:55;164873.47;;;4.29;59.41
45255;BME280;30989;52.078;21.014;2023-02-27T10:47:23;164788.09;;;3.96;61.91
45255;BME280;30989;52.078;21.014;2023-02-27T10:49:49;164737.44;;;3.77;62.38
45255;BME280;30989;52.078;21.014;2023-02-27T10:52:15;164697.44;;;3.62;63.00
45255;BME280;30989;52.078;21.014;2023-02-27T10:54:42;164641.47;;;3.40;59.37
45255;BME280;30989;52.078;21.014;2023-02-27T10:57:27;164582.81;;;3.18;62.18
45255;BME280;30989;52.078;21.014;2023-02-27T11:00:00;164526.84;;;2.97;59.57
45255;BME280;30989;52.078;21.014;2023-02-27T11:02:37;164409.59;;;2.52;60.56
45255;BME280;30989;52.078;21.014;2023-02-27T11:05:06;164348.34;;;2.29;60.42
45255;BME280;30989;52.078;21.014;2023-02-27T11:07:40;164292.41;;;2.07;60.95
45255;BME280;30989;52.078;21.014;2023-02-27T11:12:38;164211.19;;;1.76;60.93
45255;BME280;30989;52.078;21.014;2023-02-27T11:17:40;164188.56;;;1.68;62.44
45255;BME280;30989;52.078;21.014;2023-02-27T11:23:18;164227.16;;;1.82;64.00
45255;BME280;30989;52.078;21.014;2023-02-27T11:25:45;164244.47;;;1.89;64.20
45255;BME280;30989;52.078;21.014;2023-02-27T11:28:12;164307.06;;;2.13;63.23
45255;BME280;30989;52.078;21.014;2023-02-27T11:30:41;164315.03;;;2.16;63.46
45255;BME280;30989;52.078;21.014;2023-02-27T11:33:18;164296.41;;;2.09;62.09
45255;BME280;30989;52.078;21.014;2023-02-27T11:35:49;164252.47;;;1.92;62.34
45255;BME280;30989;52.078;21.014;2023-02-27T11:38:26;164212.50;;;1.77;61.35
45255;BME280;30989;52.078;21.014;2023-02-27T11:40:56;164176.56;;;1.63;61.81
45255;BME280;30989;52.078;21.014;2023-02-27T11:43:51;164151.28;;;1.53;62.84
45255;BME280;30989;52.078;21.014;2023-02-27T11:46:22;164153.94;;;1.54;63.60
45255;BME280;30989;52.078;21.014;2023-02-27T11:48:50;164140.63;;;1.49;61.85
45255;BME280;30989;52.078;21.014;2023-02-27T11:51:49;164124.66;;;1.43;63.02
45255;BME280;30989;52.078;21.014;2023-02-27T11:57:02;164066.09;;;1.21;63.41
45255;BME280;30989;52.078;21.014;2023-02-27T11:59:41;164028.84;;;1.07;62.84
45255;BME280;30989;52.078;21.014;2023-02-27T12:07:40;163938.34;;;0.72;62.15
45255;BME280;30989;52.078;21.014;2023-02-27T12:12:56;163983.59;;;0.89;63.76
45255;BME280;30989;52.078;21.014;2023-02-27T12:15:43;163991.56;;;0.92;62.48
45255;BME280;30989;52.078;21.014;2023-02-27T12:20:42;164004.88;;;0.98;62.33
45255;BME280;30989;52.078;21.014;2023-02-27T12:23:35;164020.84;;;1.04;62.77
45255;BME280;30989;52.078;21.014;2023-02-27T12:26:12;164039.47;;;1.11;62.08
45255;BME280;30989;52.078;21.014;2023-02-27T12:28:52;164039.47;;;1.11;62.58
45255;BME280;30989;52.078;21.014;2023-02-27T12:34:00;164050.13;;;1.15;63.72
45255;BME280;30989;52.078;21.014;2023-02-27T12:36:26;164043.47;;;1.12;61.33
45255;BME280;30989;52.078;21.014;2023-02-27T12:38:52;164027.50;;;1.06;63.47
45255;BME280;30989;52.078;21.014;2023-02-27T12:41:32;164028.84;;;1.07;63.00
45255;BME280;30989;52.078;21.014;2023-02-27T12:49:45;163990.25;;;0.92;63.04
45255;BME280;30989;52.078;21.014;2023-02-27T12:55:09;163941.03;;;0.73;63.21
45255;BME280;30989;52.078;21.014;2023-02-27T12:58:14;163925.06;;;0.67;63.91
45255;BME280;30989;52.078;21.014;2023-02-27T13:00:48;163921.06;;;0.66;64.62
45255;BME280;30989;52.078;21.014;2023-02-27T13:03:38;163917.06;;;0.64;63.77
45255;BME280;30989;52.078;21.014;2023-02-27T13:11:50;163833.28;;;0.32;64.54
45255;BME280;30989;52.078;21.014;2023-02-27T13:17:41;163834.59;;;0.32;65.17
45255;BME280;30989;52.078;21.014;2023-02-27T13:19:56;163859.88;;;0.42;66.81
45255;BME280;30989;52.078;21.014;2023-02-27T13:22:37;163863.88;;;0.44;65.20
45255;BME280;30989;52.078;21.014;2023-02-27T13:25:11;163867.84;;;0.45;65.39
45255;BME280;30989;52.078;21.014;2023-02-27T13:27:45;163881.16;;;0.50;66.38
45255;BME280;30989;52.078;21.014;2023-02-27T13:30:18;163874.50;;;0.48;64.92
45255;BME280;30989;52.078;21.014;2023-02-27T13:32:54;163835.94;;;0.33;64.61
45255;BME280;30989;52.078;21.014;2023-02-27T13:43:53;163757.47;;;0.03;65.22
45255;BME280;30989;52.078;21.014;2023-02-27T13:46:29;163772.09;;;0.09;65.63
45255;BME280;30989;52.078;21.014;2023-02-27T13:59:21;163764.13;;;0.06;66.17
45255;BME280;30989;52.078;21.014;2023-02-27T14:01:53;163752.16;;;0.01;65.76
45255;BME280;30989;52.078;21.014;2023-02-27T14:04:21;163741.47;;;-0.03;66.85
45255;BME280;30989;52.078;21.014;2023-02-27T14:06:49;163718.88;;;-0.12;67.34
45255;BME280;30989;52.078;21.014;2023-02-27T14:09:19;163741.47;;;-0.03;66.88
45255;BME280;30989;52.078;21.014;2023-02-27T14:11:55;163736.16;;;-0.05;67.14
45255;BME280;30989;52.078;21.014;2023-02-27T14:14:44;163745.47;;;-0.02;67.89
45255;BME280;30989;52.078;21.014;2023-02-27T14:20:00;163769.44;;;0.08;68.15
45255;BME280;30989;52.078;21.014;2023-02-27T14:22:41;163765.47;;;0.06;68.13
45255;BME280;30989;52.078;21.014;2023-02-27T14:25:24;163752.16;;;0.01;68.38
45255;BME280;30989;52.078;21.014;2023-02-27T14:27:55;163722.84;;;-0.10;68.21
45255;BME280;30989;52.078;21.014;2023-02-27T14:30:29;163688.28;;;-0.23;67.16
45255;BME280;30989;52.078;21.014;2023-02-27T14:33:14;163684.31;;;-0.25;67.79
45255;BME280;30989;52.078;21.014;2023-02-27T14:35:52;163682.97;;;-0.25;68.36
45255;BME280;30989;52.078;21.014;2023-02-27T14:38:20;163688.28;;;-0.23;68.29
45255;BME280;30989;52.078;21.014;2023-02-27T14:43:52;163669.69;;;-0.30;67.72
45255;BME280;30989;52.078;21.014;2023-02-27T14:48:59;163661.72;;;-0.34;68.43
45255;BME280;30989;52.078;21.014;2023-02-27T14:51:26;163675.00;;;-0.28;68.83
45255;BME280;30989;52.078;21.014;2023-02-27T14:53:59;163676.31;;;-0.28;68.60
45255;BME280;30989;52.078;21.014;2023-02-27T14:56:26;163676.31;;;-0.28;67.82
45255;BME280;30989;52.078;21.014;2023-02-27T14:58:51;163655.06;;;-0.36;68.09
45255;BME280;30989;52.078;21.014;2023-02-27T15:01:18;163656.38;;;-0.36;68.47
45255;BME280;30989;52.078;21.014;2023-02-27T15:03:50;163655.06;;;-0.36;68.31
45255;BME280;30989;52.078;21.014;2023-02-27T15:06:20;163635.13;;;-0.44;68.46